Time;durP1;ratioP1;P1;durP2;ratioP2;P2;SDS_P1;SDS_P2;PMS_P1;PMS_P2;Temp;Humidity;BMP_temperature;BMP_pressure;BME280_temperature;BME280_humidity;BME280_pressure;Samples;Min_cycle;Max_cycle;Signal;HPM_P1;HPM_P2
2021/07/18 00:02:08;;;;;;;10.43;2.70;;;;;;;17.02;94.15;102067.63;5085356;28;20036;-79
2021/07/18 00:04:33;;;;;;;9.10;2.95;;;;;;;17.04;93.89;102070.97;5065067;28;20143;-81
2021/07/18 00:06:59;;;;;;;9.38;2.72;;;;;;;17.15;93.52;102058.44;5084253;28;20040;-79
2021/07/18 00:09:24;;;;;;;12.32;2.75;;;;;;;16.97;94.88;102062.00;5067618;28;20130;-80
2021/07/18 00:11:50;;;;;;;9.07;2.70;;;;;;;17.04;94.21;102065.66;5089243;28;20097;-83
2021/07/18 00:14:16;;;;;;;8.05;2.45;;;;;;;17.05;94.39;102058.56;5067142;28;20059;-78
2021/07/18 00:16:41;;;;;;;14.30;3.05;;;;;;;17.00;95.15;102056.34;5065632;28;20435;-81
2021/07/18 00:19:08;;;;;;;7.70;3.38;;;;;;;16.95;95.21;102066.59;5088111;28;20070;-80
2021/07/18 00:21:34;;;;;;;6.80;3.38;;;;;;;16.93;95.25;102068.56;5071715;28;20044;-83
2021/07/18 00:24:00;;;;;;;7.78;2.33;;;;;;;16.93;95.11;102058.81;5064935;28;20031;-79
2021/07/18 00:26:26;;;;;;;7.03;2.53;;;;;;;17.03;94.43;102065.84;5072538;28;20040;-80
2021/07/18 00:29:02;;;;;;;14.73;2.90;;;;;;;16.89;95.38;102060.09;5060339;28;20501;-81
2021/07/18 00:31:28;;;;;;;7.68;2.58;;;;;;;16.89;95.70;102072.53;5062639;28;20161;-81
2021/07/18 00:34:03;;;;;;;6.32;2.50;;;;;;;16.84;95.53;102069.50;5074299;28;20043;-81
2021/07/18 00:36:29;;;;;;;9.68;2.95;;;;;;;16.82;95.87;102071.44;5077454;28;20055;-81
2021/07/18 00:38:54;;;;;;;9.80;3.15;;;;;;;16.83;95.64;102075.81;5075383;28;20051;-81
2021/07/18 00:41:20;;;;;;;7.75;2.88;;;;;;;16.87;95.74;102074.50;5065027;28;20032;-81
2021/07/18 00:43:45;;;;;;;11.48;2.42;;;;;;;16.87;95.71;102074.50;5091774;28;20118;-81
2021/07/18 00:46:11;;;;;;;7.72;2.47;;;;;;;16.71;95.58;102057.47;5085127;28;20031;-79
2021/07/18 00:48:37;;;;;;;8.82;2.20;;;;;;;16.86;95.29;102068.38;5076134;28;20116;-81
2021/07/18 00:51:07;;;;;;;14.57;3.08;;;;;;;16.86;95.47;102068.38;5061425;28;20039;-82
2021/07/18 00:53:33;;;;;;;8.38;2.65;;;;;;;16.85;95.95;102074.66;5104684;28;20405;-81
2021/07/18 00:55:59;;;;;;;4.18;2.20;;;;;;;16.77;95.74;102066.63;5068067;28;20413;-82
2021/07/18 00:58:29;;;;;;;4.53;2.10;;;;;;;16.78;96.05;102070.09;5075277;28;20067;-81
2021/07/18 01:00:56;;;;;;;9.05;2.40;;;;;;;16.71;95.96;102064.59;5107219;28;20035;-81
2021/07/18 01:03:22;;;;;;;6.78;2.35;;;;;;;16.63;96.51;102064.53;5060132;28;20108;-80
2021/07/18 01:05:48;;;;;;;14.45;3.00;;;;;;;16.63;96.42;102062.72;5077710;28;20019;-80
2021/07/18 01:08:15;;;;;;;11.43;2.95;;;;;;;16.82;96.49;102060.84;5088673;28;20035;-80
2021/07/18 01:10:41;;;;;;;10.88;3.17;;;;;;;16.76;95.65;102058.81;5075855;28;20501;-80
2021/07/18 01:13:06;;;;;;;10.95;2.85;;;;;;;16.67;97.07;102061.44;5077856;28;20090;-81
2021/07/18 01:15:32;;;;;;;9.27;3.10;;;;;;;16.68;96.39;102060.44;5080192;28;20042;-82
2021/07/18 01:17:58;;;;;;;8.15;3.45;;;;;;;16.70;96.73;102060.28;5072442;28;20036;-79
2021/07/18 01:20:24;;;;;;;9.57;3.10;;;;;;;16.64;96.92;102068.84;5086522;28;20036;-80
2021/07/18 01:22:50;;;;;;;9.93;3.30;;;;;;;16.64;96.73;102061.72;5089268;28;20151;-78
2021/07/18 01:25:16;;;;;;;11.45;3.13;;;;;;;16.65;96.80;102068.72;5087900;28;20027;-80
2021/07/18 01:27:43;;;;;;;9.57;3.20;;;;;;;16.59;97.11;102066.66;5076103;28;20031;-79
2021/07/18 01:30:10;;;;;;;13.05;3.42;;;;;;;16.50;97.62;102071.06;5079874;28;20027;-81
2021/07/18 01:32:37;;;;;;;9.05;3.28;;;;;;;16.59;97.46;102071.13;5085351;28;20047;-81
2021/07/18 01:35:06;;;;;;;8.35;3.30;;;;;;;16.57;97.53;102071.28;5092471;28;20036;-80
2021/07/18 01:37:32;;;;;;;10.75;3.30;;;;;;;16.62;96.58;102071.66;5071067;28;20038;-82
2021/07/18 01:39:57;;;;;;;8.73;3.20;;;;;;;16.67;96.18;102066.72;5070997;28;20408;-82
2021/07/18 01:42:24;;;;;;;9.13;3.10;;;;;;;16.55;97.12;102068.78;5072713;28;20109;-80
2021/07/18 01:44:50;;;;;;;7.60;3.05;;;;;;;16.53;97.63;102064.63;5071038;28;20106;-79
2021/07/18 01:47:16;;;;;;;8.25;2.92;;;;;;;16.50;97.33;102067.56;5074428;28;20043;-81
2021/07/18 01:49:42;;;;;;;7.80;2.78;;;;;;;16.45;97.46;102067.22;5089941;28;20031;-79
2021/07/18 01:52:08;;;;;;;7.25;2.85;;;;;;;16.50;97.18;102073.72;5090680;28;20081;-81
2021/07/18 01:54:34;;;;;;;6.63;2.75;;;;;;;16.41;97.00;102065.88;5071816;28;20036;-80
2021/07/18 01:57:16;;;;;;;6.60;2.42;;;;;;;16.36;97.84;102071.59;5060163;28;20778;-82
2021/07/18 01:59:42;;;;;;;5.40;2.42;;;;;;;16.24;98.27;102065.72;5082483;28;20040;-80
2021/07/18 02:02:08;;;;;;;11.73;3.33;;;;;;;16.23;98.51;102069.31;5057174;28;20046;-80
2021/07/18 02:04:34;;;;;;;9.00;2.83;;;;;;;16.14;99.41;102072.88;5057617;28;20024;-80
2021/07/18 02:07:03;;;;;;;6.05;2.53;;;;;;;16.25;99.04;102070.00;5068190;28;20039;-81
2021/07/18 02:09:28;;;;;;;9.82;2.92;;;;;;;16.27;99.20;102070.69;5072630;28;20039;-82
2021/07/18 02:11:54;;;;;;;10.13;3.20;;;;;;;16.21;99.49;102073.13;5056116;28;20308;-79
2021/07/18 02:14:19;;;;;;;7.10;3.13;;;;;;;16.22;99.60;102066.81;5085241;28;20043;-80
2021/07/18 02:16:45;;;;;;;5.65;2.50;;;;;;;16.18;99.93;102081.34;5093650;28;20036;-80
2021/07/18 02:19:11;;;;;;;6.00;2.30;;;;;;;16.09;99.77;102086.56;5075355;28;20458;-78
2021/07/18 02:21:40;;;;;;;11.10;3.42;;;;;;;15.90;100.00;102071.66;5073674;28;20089;-78
2021/07/18 02:24:06;;;;;;;10.23;3.15;;;;;;;15.99;100.00;102071.75;5082370;28;20036;-79
2021/07/18 02:26:32;;;;;;;7.20;3.22;;;;;;;15.91;100.00;102068.03;5065295;28;20522;-79
2021/07/18 02:28:59;;;;;;;10.02;3.67;;;;;;;15.93;100.00;102073.16;5063450;28;20062;-81
2021/07/18 02:31:26;;;;;;;11.55;3.47;;;;;;;15.87;100.00;102064.00;5081274;28;20032;-78
2021/07/18 02:33:52;;;;;;;9.45;3.00;;;;;;;15.88;100.00;102063.03;5076687;28;20032;-78
2021/07/18 02:36:17;;;;;;;10.25;3.03;;;;;;;15.75;100.00;102036.13;5072947;28;20047;-77
2021/07/18 02:38:43;;;;;;;11.38;3.25;;;;;;;15.81;100.00;102056.69;5067574;28;20525;-79
2021/07/18 02:41:09;;;;;;;8.05;2.60;;;;;;;15.74;100.00;102056.44;5071621;28;20401;-77
2021/07/18 02:43:35;;;;;;;8.48;3.00;;;;;;;15.65;100.00;102027.38;5082675;28;20035;-78
2021/07/18 02:46:01;;;;;;;10.93;3.40;;;;;;;15.83;100.00;102052.06;5069154;28;20038;-79
2021/07/18 02:48:27;;;;;;;13.55;3.38;;;;;;;15.81;100.00;102047.91;5092708;28;20032;-78
2021/07/18 02:50:52;;;;;;;12.13;3.38;;;;;;;15.72;100.00;102037.19;5067302;28;20115;-80
2021/07/18 02:53:18;;;;;;;7.13;2.60;;;;;;;15.79;100.00;102049.88;5066092;28;20036;-78
2021/07/18 02:55:43;;;;;;;8.82;3.20;;;;;;;15.82;100.00;102055.69;5072373;28;20115;-79
2021/07/18 02:58:09;;;;;;;11.45;2.88;;;;;;;15.64;100.00;102038.94;5086667;28;20039;-78
2021/07/18 03:00:35;;;;;;;6.80;2.90;;;;;;;15.73;100.00;102046.00;5092260;28;20453;-79
2021/07/18 03:03:00;;;;;;;7.82;3.17;;;;;;;15.73;100.00;102038.91;5094688;28;20478;-79
2021/07/18 03:05:26;;;;;;;7.78;2.88;;;;;;;15.82;100.00;102042.44;5067340;28;20091;-78
2021/07/18 03:07:51;;;;;;;5.60;2.67;;;;;;;15.83;100.00;102049.41;5082184;28;20040;-81
2021/07/18 03:10:18;;;;;;;8.27;3.03;;;;;;;15.91;100.00;102049.50;5076541;28;20047;-79
2021/07/18 03:12:44;;;;;;;8.65;3.45;;;;;;;15.93;100.00;102038.78;5061580;28;20069;-79
2021/07/18 03:15:13;;;;;;;9.98;2.90;;;;;;;16.08;100.00;102044.38;5056996;28;20054;-80
2021/07/18 03:17:39;;;;;;;8.35;2.92;;;;;;;16.04;100.00;102040.38;5057183;28;20067;-80
2021/07/18 03:20:07;;;;;;;10.27;3.58;;;;;;;16.14;100.00;102046.41;5084331;28;20484;-77
2021/07/18 03:22:33;;;;;;;7.10;3.20;;;;;;;16.08;100.00;102041.72;5061694;28;20049;-80
2021/07/18 03:25:03;;;;;;;7.60;2.88;;;;;;;16.16;100.00;102044.44;5070287;28;20032;-79
2021/07/18 03:27:29;;;;;;;6.18;2.85;;;;;;;16.13;100.00;102039.47;5076508;28;20035;-79
2021/07/18 03:29:54;;;;;;;8.60;3.10;;;;;;;16.13;100.00;102035.00;5072675;28;20030;-80
2021/07/18 03:32:20;;;;;;;7.72;2.95;;;;;;;16.17;100.00;102032.88;5073012;28;20151;-80
2021/07/18 03:34:47;;;;;;;11.50;3.67;;;;;;;16.19;100.00;102032.75;5083454;28;20396;-80
2021/07/18 03:37:13;;;;;;;8.57;3.22;;;;;;;16.22;100.00;102027.13;5070768;28;20036;-79
2021/07/18 03:39:38;;;;;;;11.05;3.30;;;;;;;16.17;100.00;102029.41;5074874;28;20039;-80
2021/07/18 03:42:04;;;;;;;11.52;3.47;;;;;;;16.15;100.00;102025.09;5084185;28;20032;-80
2021/07/18 03:44:29;;;;;;;12.52;3.72;;;;;;;16.18;100.00;102031.91;5076720;28;20451;-80
2021/07/18 03:46:55;;;;;;;11.00;3.85;;;;;;;16.22;100.00;102021.81;5093701;28;20032;-80
2021/07/18 03:49:20;;;;;;;7.65;3.10;;;;;;;16.20;100.00;102027.28;5075580;28;20070;-80
2021/07/18 03:51:46;;;;;;;9.23;3.42;;;;;;;16.14;100.00;102026.09;5076780;28;20244;-80
2021/07/18 03:54:11;;;;;;;10.35;3.83;;;;;;;16.29;100.00;102029.03;5092852;28;20072;-81
2021/07/18 03:56:37;;;;;;;6.80;3.50;;;;;;;16.41;100.00;102029.63;5068409;28;20040;-81
2021/07/18 03:59:02;;;;;;;9.00;3.38;;;;;;;16.41;100.00;102039.38;5056772;28;20493;-78
2021/07/18 04:01:28;;;;;;;10.48;3.63;;;;;;;16.42;100.00;102036.56;5064354;28;20089;-79
2021/07/18 04:03:54;;;;;;;11.43;3.70;;;;;;;16.32;100.00;102038.47;5065368;28;20730;-79
2021/07/18 04:06:19;;;;;;;10.70;3.50;;;;;;;16.47;100.00;102044.06;5090684;28;20036;-80
2021/07/18 04:08:45;;;;;;;11.10;3.88;;;;;;;16.50;100.00;102046.38;5069019;28;20127;-81
2021/07/18 04:11:12;;;;;;;10.35;3.15;;;;;;;16.49;100.00;102034.13;5071335;28;20459;-79
2021/07/18 04:13:38;;;;;;;9.52;3.38;;;;;;;16.49;100.00;102040.25;5090220;28;20032;-79
2021/07/18 04:16:04;;;;;;;9.05;3.63;;;;;;;16.59;100.00;102044.63;5077129;28;20097;-78
2021/07/18 04:18:31;;;;;;;9.05;3.42;;;;;;;16.53;100.00;102046.09;5079768;28;20207;-78
2021/07/18 04:20:56;;;;;;;8.20;3.30;;;;;;;16.50;100.00;102035.78;5089853;28;20035;-79
2021/07/18 04:23:22;;;;;;;7.88;4.07;;;;;;;16.73;100.00;102046.72;5106488;28;20054;-79
2021/07/18 04:25:48;;;;;;;12.60;3.70;;;;;;;16.81;100.00;102045.97;5072330;28;20035;-80
2021/07/18 04:28:14;;;;;;;8.48;3.30;;;;;;;16.81;100.00;102044.13;5099612;28;20040;-79
2021/07/18 04:30:40;;;;;;;8.88;3.30;;;;;;;16.87;100.00;102048.00;5089438;28;20044;-78
2021/07/18 04:33:05;;;;;;;13.48;3.80;;;;;;;16.97;100.00;102051.41;5107591;28;20035;-79
2021/07/18 04:35:31;;;;;;;9.75;3.10;;;;;;;17.06;100.00;102054.91;5080620;28;20035;-79
2021/07/18 04:37:57;;;;;;;8.25;3.75;;;;;;;17.08;99.58;102059.06;5060759;28;20034;-78
2021/07/18 04:40:23;;;;;;;5.80;3.10;;;;;;;17.04;100.00;102057.69;5078225;28;20035;-79
2021/07/18 04:42:49;;;;;;;9.90;3.60;;;;;;;17.04;100.00;102055.06;5097226;28;20481;-78
2021/07/18 04:45:15;;;;;;;7.55;4.10;;;;;;;17.02;99.78;102051.72;5085350;28;20039;-79
2021/07/18 04:47:52;;;;;;;11.07;3.92;;;;;;;17.17;98.65;102059.09;5088657;28;20039;-79
2021/07/18 04:50:19;;;;;;;11.18;3.47;;;;;;;17.27;97.81;102059.81;5080200;28;20432;-79
2021/07/18 04:52:45;;;;;;;10.32;3.75;;;;;;;17.32;98.19;102049.56;5072390;28;20024;-80
2021/07/18 04:55:12;;;;;;;7.03;3.25;;;;;;;17.31;97.47;102050.56;5080392;28;20035;-80
2021/07/18 04:57:38;;;;;;;9.40;3.38;;;;;;;17.35;97.03;102057.22;5083713;28;20103;-79
2021/07/18 05:00:14;;;;;;;8.48;3.63;;;;;;;17.27;96.98;102052.72;5077530;28;20043;-84
2021/07/18 05:02:40;;;;;;;13.15;3.30;;;;;;;17.35;97.16;102046.59;5077496;28;20063;-78
2021/07/18 05:05:07;;;;;;;8.57;3.40;;;;;;;17.38;96.92;102048.91;5111596;28;20115;-81
2021/07/18 05:07:32;;;;;;;10.00;3.15;;;;;;;17.42;97.16;102038.81;5087432;28;20046;-79
2021/07/18 05:09:58;;;;;;;10.00;3.00;;;;;;;17.52;96.74;102028.94;5093534;28;20028;-82
2021/07/18 05:12:23;;;;;;;11.00;3.50;;;;;;;17.56;96.71;102038.22;5077113;28;20618;-79
2021/07/18 05:14:49;;;;;;;9.30;3.40;;;;;;;17.58;95.55;102041.53;5084524;28;20494;-78
2021/07/18 05:17:15;;;;;;;7.60;3.10;;;;;;;17.74;95.98;102045.22;5059746;28;20085;-80
2021/07/18 05:19:41;;;;;;;7.00;2.38;;;;;;;17.87;94.30;102053.59;5077001;28;20044;-81
2021/07/18 05:22:07;;;;;;;7.03;2.95;;;;;;;17.88;93.46;102045.47;5067323;28;20028;-79
2021/07/18 05:24:33;;;;;;;9.32;2.90;;;;;;;18.00;93.18;102050.47;5075795;28;20032;-79
2021/07/18 05:26:59;;;;;;;8.73;2.90;;;;;;;18.06;93.96;102049.78;5072591;28;20104;-80
2021/07/18 05:29:25;;;;;;;6.82;2.83;;;;;;;18.03;94.18;102032.38;5104835;28;20028;-80
2021/07/18 05:31:51;;;;;;;8.70;2.75;;;;;;;18.15;93.25;102056.78;5060118;28;20035;-80
2021/07/18 05:34:16;;;;;;;6.70;2.63;;;;;;;18.26;91.64;102053.81;5074310;28;20067;-78
2021/07/18 05:36:42;;;;;;;6.82;2.60;;;;;;;18.29;91.00;102042.84;5114208;28;20044;-78
2021/07/18 05:39:07;;;;;;;7.70;2.65;;;;;;;18.36;90.68;102045.66;5091515;28;20024;-81
2021/07/18 05:41:33;;;;;;;8.90;2.38;;;;;;;18.52;90.29;102049.34;5096548;28;20450;-78
2021/07/18 05:43:58;;;;;;;13.40;2.65;;;;;;;18.50;89.23;102060.13;5080564;28;20039;-79
2021/07/18 05:46:24;;;;;;;7.90;2.10;;;;;;;18.57;89.94;102065.59;5079867;28;20042;-80
2021/07/18 05:48:50;;;;;;;8.95;2.72;;;;;;;18.62;89.29;102055.28;5076986;28;20389;-80
2021/07/18 05:51:15;;;;;;;7.05;2.25;;;;;;;18.59;90.66;102058.28;5066482;28;20032;-80
2021/07/18 05:53:41;;;;;;;7.82;2.40;;;;;;;18.61;89.73;102062.44;5086535;28;20450;-81
2021/07/18 05:56:06;;;;;;;5.57;2.25;;;;;;;18.65;88.30;102066.41;5071605;28;20564;-79
2021/07/18 05:58:32;;;;;;;7.28;2.33;;;;;;;18.73;88.00;102064.75;5078772;28;20039;-80
2021/07/18 06:00:57;;;;;;;9.52;2.38;;;;;;;18.73;87.92;102060.25;5086303;28;20505;-78
2021/07/18 06:03:23;;;;;;;9.35;2.28;;;;;;;18.77;88.36;102074.03;5076422;28;20034;-80
2021/07/18 06:05:48;;;;;;;7.43;2.35;;;;;;;18.86;87.25;102073.06;5062600;28;20059;-77
2021/07/18 06:08:14;;;;;;;7.70;2.22;;;;;;;18.98;86.80;102070.88;5067048;28;20064;-80
2021/07/18 06:10:39;;;;;;;8.23;2.65;;;;;;;19.01;85.50;102058.06;5074371;28;20498;-82
2021/07/18 06:13:06;;;;;;;6.22;2.30;;;;;;;19.16;86.57;102068.84;5075481;28;20036;-78
2021/07/18 06:15:31;;;;;;;8.88;2.13;;;;;;;19.18;85.56;102069.50;5076191;28;20140;-79
2021/07/18 06:17:57;;;;;;;10.25;2.40;;;;;;;19.40;86.13;102069.72;5076249;28;20042;-81
2021/07/18 06:20:22;;;;;;;5.93;2.67;;;;;;;19.42;84.25;102065.06;5088451;28;20545;-79
2021/07/18 06:22:51;;;;;;;5.60;2.03;;;;;;;19.56;85.91;102074.16;5077076;28;20040;-82
2021/07/18 06:25:17;;;;;;;5.97;2.40;;;;;;;19.62;84.73;102078.78;5071374;28;20122;-80
2021/07/18 06:27:43;;;;;;;7.88;2.30;;;;;;;19.77;82.51;102084.25;5063838;28;20028;-78
2021/07/18 06:30:10;;;;;;;6.80;2.08;;;;;;;19.94;82.10;102080.47;5085778;28;20028;-82
2021/07/18 06:32:36;;;;;;;6.35;2.17;;;;;;;19.85;81.78;102076.19;5067800;28;20024;-81
2021/07/18 06:35:02;;;;;;;7.70;2.00;;;;;;;19.87;83.30;102076.03;5066503;28;20028;-79
2021/07/18 06:37:28;;;;;;;7.68;2.08;;;;;;;20.03;84.15;102081.25;5091818;28;20097;-80
2021/07/18 06:39:53;;;;;;;6.13;2.08;;;;;;;20.06;79.92;102067.59;5074622;28;20032;-79
2021/07/18 06:42:20;;;;;;;3.83;2.03;;;;;;;20.07;80.67;102087.88;5086914;28;20036;-80
2021/07/18 06:44:46;;;;;;;4.88;1.88;;;;;;;20.23;81.23;102084.28;5107117;28;20255;-81
2021/07/18 06:47:11;;;;;;;5.68;1.95;;;;;;;20.30;79.10;102077.22;5070667;28;20632;-78
2021/07/18 06:49:37;;;;;;;8.40;2.08;;;;;;;20.17;78.75;102074.31;5064643;28;20154;-80
2021/07/18 06:52:03;;;;;;;13.98;2.90;;;;;;;20.17;78.94;102079.66;5077274;28;20031;-81
2021/07/18 06:54:29;;;;;;;7.38;2.25;;;;;;;20.49;78.34;102075.06;5092598;28;20413;-81
2021/07/18 06:56:55;;;;;;;4.68;2.03;;;;;;;20.64;77.83;102073.31;5085599;28;20036;-79
2021/07/18 06:59:20;;;;;;;5.97;2.00;;;;;;;20.85;78.09;102077.09;5074035;28;20039;-81
2021/07/18 07:01:46;;;;;;;6.88;2.10;;;;;;;20.89;76.40;102070.38;5063777;28;20032;-80
2021/07/18 07:04:13;;;;;;;7.13;2.08;;;;;;;20.96;76.63;102074.84;5071184;28;20032;-83
2021/07/18 07:06:38;;;;;;;5.32;1.88;;;;;;;20.96;75.82;102072.16;5073705;28;21634;-81
2021/07/18 07:09:04;;;;;;;6.75;2.30;;;;;;;21.02;76.66;102080.44;5076900;28;20038;-78
2021/07/18 07:11:29;;;;;;;6.38;2.00;;;;;;;21.24;74.98;102081.34;5076102;28;20588;-84
2021/07/18 07:13:55;;;;;;;8.18;1.95;;;;;;;21.39;78.59;102087.50;5085031;28;20028;-80
2021/07/18 07:16:20;;;;;;;4.70;1.83;;;;;;;21.50;73.16;102087.06;5097564;28;20116;-83
2021/07/18 07:18:47;;;;;;;4.30;1.55;;;;;;;21.42;73.39;102088.97;5070007;28;20023;-81
2021/07/18 07:21:13;;;;;;;10.57;1.92;;;;;;;21.49;73.10;102087.25;5102783;28;20028;-83
2021/07/18 07:23:40;;;;;;;7.45;2.15;;;;;;;21.48;71.85;102083.75;5101870;28;20049;-80
2021/07/18 07:26:06;;;;;;;6.57;1.85;;;;;;;21.43;73.56;102082.63;5094244;28;20106;-80
2021/07/18 07:28:34;;;;;;;3.78;1.70;;;;;;;21.43;72.18;102078.09;5077418;28;20059;-81
2021/07/18 07:31:01;;;;;;;9.63;1.85;;;;;;;21.44;72.24;102076.28;5078908;28;20038;-81
2021/07/18 07:33:27;;;;;;;5.93;2.10;;;;;;;21.58;73.92;102081.59;5084934;28;20028;-80
2021/07/18 07:35:53;;;;;;;5.72;1.77;;;;;;;21.82;73.64;102076.16;5105633;28;20138;-79
2021/07/18 07:38:18;;;;;;;6.43;1.80;;;;;;;22.00;72.78;102081.88;5087061;28;20123;-80
2021/07/18 07:40:45;;;;;;;5.05;2.00;;;;;;;22.03;73.14;102081.50;5061925;28;20036;-80
2021/07/18 07:43:12;;;;;;;4.45;1.58;;;;;;;22.14;70.51;102080.16;5073547;28;20019;-80
2021/07/18 07:45:37;;;;;;;8.35;1.73;;;;;;;22.26;69.28;102088.53;5077916;28;20064;-80
2021/07/18 07:48:03;;;;;;;5.55;2.13;;;;;;;22.23;69.60;102094.25;5090864;28;20116;-81
2021/07/18 07:50:29;;;;;;;3.72;1.48;;;;;;;22.19;72.76;102088.44;5068133;28;20032;-79
2021/07/18 07:52:55;;;;;;;5.32;1.90;;;;;;;22.29;70.20;102088.97;5086820;28;20028;-78
2021/07/18 07:55:20;;;;;;;4.13;1.63;;;;;;;22.22;68.94;102088.03;5076785;28;20036;-78
2021/07/18 07:57:46;;;;;;;3.58;1.63;;;;;;;22.25;68.70;102081.50;5082083;28;20546;-81
2021/07/18 08:00:15;;;;;;;6.07;1.52;;;;;;;22.34;68.51;102077.72;5079907;28;20066;-81
2021/07/18 08:02:41;;;;;;;3.58;1.45;;;;;;;22.38;67.96;102080.81;5099630;28;20107;-82
2021/07/18 08:05:07;;;;;;;5.55;2.20;;;;;;;22.46;68.08;102084.19;5092645;28;20055;-80
2021/07/18 08:07:33;;;;;;;4.82;1.73;;;;;;;22.65;68.39;102084.53;5099635;28;20550;-81
2021/07/18 08:09:58;;;;;;;6.45;1.88;;;;;;;22.91;68.29;102083.91;5092535;28;20122;-80
2021/07/18 08:12:24;;;;;;;3.42;1.48;;;;;;;22.97;65.95;102082.28;5081980;28;20059;-82
2021/07/18 08:14:49;;;;;;;3.20;1.67;;;;;;;23.05;68.09;102087.50;5074405;28;20031;-81
2021/07/18 08:17:15;;;;;;;4.95;1.65;;;;;;;23.06;67.33;102073.94;5090324;28;20040;-81
2021/07/18 08:19:41;;;;;;;3.92;1.55;;;;;;;23.03;63.82;102078.81;5083272;28;20041;-81
2021/07/18 08:22:08;;;;;;;6.97;1.60;;;;;;;23.08;65.96;102082.59;5100175;28;20031;-81
2021/07/18 08:24:34;;;;;;;6.35;1.55;;;;;;;23.17;63.23;102083.25;5079034;28;20032;-82
2021/07/18 08:27:00;;;;;;;3.80;1.52;;;;;;;23.08;65.26;102085.25;5080918;28;20024;-81
2021/07/18 08:29:26;;;;;;;4.65;1.88;;;;;;;22.86;67.23;102097.03;5064485;28;20028;-80
2021/07/18 08:31:57;;;;;;;5.25;1.60;;;;;;;23.13;64.73;102090.84;5071440;28;20035;-80
2021/07/18 08:34:23;;;;;;;7.10;1.50;;;;;;;23.29;61.99;102100.41;5075846;28;20172;-81
2021/07/18 08:36:49;;;;;;;6.72;1.67;;;;;;;23.38;62.68;102093.03;5064357;28;20527;-81
2021/07/18 08:39:16;;;;;;;9.45;1.60;;;;;;;23.50;61.53;102096.78;5095387;28;20109;-83
2021/07/18 08:41:44;;;;;;;8.07;2.00;;;;;;;23.55;63.08;102090.03;5081427;28;20412;-82
2021/07/18 08:44:14;;;;;;;4.25;1.40;;;;;;;23.55;64.54;102098.06;5081886;28;20118;-79
2021/07/18 08:46:41;;;;;;;3.15;1.40;;;;;;;23.66;63.77;102095.63;5072635;28;20055;-82
2021/07/18 08:49:08;;;;;;;3.10;1.35;;;;;;;23.76;62.68;102089.06;5089959;28;20226;-82
2021/07/18 08:51:35;;;;;;;5.72;1.70;;;;;;;23.96;62.54;102095.31;5076639;28;20095;-82
2021/07/18 08:54:01;;;;;;;6.55;1.40;;;;;;;24.06;60.80;102087.72;5081649;28;20020;-79
2021/07/18 08:56:31;;;;;;;5.63;1.83;;;;;;;24.16;60.26;102083.81;5066139;28;20061;-80
2021/07/18 08:58:57;;;;;;;3.92;1.70;;;;;;;24.36;61.32;102083.84;5066417;28;20097;-81
2021/07/18 09:01:23;;;;;;;5.32;1.40;;;;;;;24.53;62.84;102087.78;5101807;28;20140;-80
2021/07/18 09:03:49;;;;;;;5.53;1.40;;;;;;;24.45;59.44;102086.09;5079875;28;20493;-80
2021/07/18 09:06:14;;;;;;;3.58;1.40;;;;;;;24.66;61.67;102084.25;5084112;28;20031;-80
2021/07/18 09:08:50;;;;;;;4.53;1.50;;;;;;;24.93;60.21;102082.34;5064633;28;20089;-78
2021/07/18 09:11:24;;;;;;;8.35;1.75;;;;;;;25.06;60.63;102082.31;5083882;28;20028;-79
2021/07/18 09:14:02;;;;;;;3.33;1.38;;;;;;;25.05;59.48;102080.69;5097915;28;20023;-79
2021/07/18 09:16:34;;;;;;;4.03;1.55;;;;;;;24.94;59.73;102080.47;5089168;28;20104;-79
2021/07/18 09:19:29;;;;;;;3.47;1.50;;;;;;;25.01;60.10;102075.94;5071552;28;20028;-79
2021/07/18 09:22:04;;;;;;;6.28;1.70;;;;;;;25.50;58.30;102079.91;5093167;28;20102;-80
2021/07/18 09:24:39;;;;;;;6.50;1.40;;;;;;;24.70;59.12;102066.72;5096282;28;20213;-81
2021/07/18 09:27:10;;;;;;;5.65;1.52;;;;;;;24.72;59.44;102075.38;5089828;28;20035;-78
2021/07/18 09:29:37;;;;;;;5.93;1.77;;;;;;;24.75;62.35;102071.44;5100662;28;20044;-80
2021/07/18 09:32:06;;;;;;;3.53;1.20;;;;;;;24.36;62.55;102076.59;5090541;28;20027;-79
2021/07/18 09:35:05;;;;;;;5.78;1.73;;;;;;;23.83;64.50;102081.91;5074089;28;20473;-82
2021/07/18 09:37:33;;;;;;;5.10;1.50;;;;;;;23.52;67.86;102075.97;5052763;28;20047;-80
2021/07/18 09:40:00;;;;;;;7.25;1.50;;;;;;;24.16;64.28;102081.13;5095106;28;20031;-79
2021/07/18 09:42:31;;;;;;;4.53;1.60;;;;;;;24.93;62.49;102073.47;5069970;28;20046;-82
2021/07/18 09:44:57;;;;;;;7.95;1.65;;;;;;;24.99;58.39;102075.31;5073523;28;20039;-81
2021/07/18 09:47:23;;;;;;;3.58;1.60;;;;;;;24.50;60.08;102080.09;5064599;28;20047;-80
2021/07/18 09:49:49;;;;;;;4.20;1.63;;;;;;;24.43;61.28;102074.75;5093655;28;20450;-79
2021/07/18 09:52:23;;;;;;;6.30;1.92;;;;;;;24.54;64.48;102070.63;5073484;28;20040;-79
2021/07/18 09:54:53;;;;;;;10.38;1.85;;;;;;;24.37;61.59;102072.06;5093899;28;20058;-78
2021/07/18 09:57:36;;;;;;;6.22;1.98;;;;;;;23.90;63.42;102077.38;5089447;28;20035;-79
2021/07/18 10:00:10;;;;;;;6.13;1.65;;;;;;;23.65;65.13;102071.72;5099467;28;20497;-78
2021/07/18 10:02:39;;;;;;;4.18;1.50;;;;;;;24.14;65.88;102067.09;5068035;28;20032;-78
2021/07/18 10:05:06;;;;;;;6.05;1.80;;;;;;;24.80;62.10;102058.22;5068399;28;20594;-78
2021/07/18 10:07:34;;;;;;;5.68;1.63;;;;;;;25.48;59.97;102057.81;5071329;28;20028;-78
2021/07/18 10:10:00;;;;;;;5.53;1.42;;;;;;;25.74;58.38;102064.09;5083140;28;20053;-80
2021/07/18 10:12:29;;;;;;;3.38;1.40;;;;;;;25.60;58.33;102064.16;5080716;28;20122;-81
2021/07/18 10:14:57;;;;;;;6.53;1.85;;;;;;;25.40;58.65;102068.81;5092970;28;20058;-79
2021/07/18 10:17:23;;;;;;;5.18;1.63;;;;;;;25.16;61.49;102056.88;5077879;28;20135;-79
2021/07/18 10:19:48;;;;;;;8.43;1.60;;;;;;;25.47;60.35;102058.88;5093220;28;20066;-78
2021/07/18 10:22:15;;;;;;;5.15;1.63;;;;;;;25.10;58.10;102055.88;5103559;28;20083;-78
2021/07/18 10:24:41;;;;;;;6.10;1.67;;;;;;;25.39;58.62;102061.78;5068572;28;20066;-83
2021/07/18 10:27:06;;;;;;;5.07;1.30;;;;;;;25.62;56.00;102053.22;5069155;28;20059;-81
2021/07/18 10:29:33;;;;;;;4.18;1.40;;;;;;;26.08;57.56;102053.97;5064812;28;20031;-83
2021/07/18 10:32:07;;;;;;;4.55;1.30;;;;;;;26.30;54.66;102062.50;5076930;28;20034;-79
2021/07/18 10:34:37;;;;;;;4.28;1.02;;;;;;;26.62;54.56;102063.25;5072174;28;20550;-77
2021/07/18 10:37:09;;;;;;;4.65;1.30;;;;;;;26.82;51.96;102054.97;5074438;28;20043;-80
2021/07/18 10:39:44;;;;;;;4.85;1.60;;;;;;;27.06;53.19;102053.25;5072838;28;20100;-81
2021/07/18 10:42:33;;;;;;;5.32;1.35;;;;;;;26.99;52.74;102049.81;5072828;28;20035;-78
2021/07/18 10:45:15;;;;;;;2.63;1.30;;;;;;;27.25;56.66;102047.84;5068530;28;20092;-82
2021/07/18 10:47:55;;;;;;;4.68;1.17;;;;;;;27.35;54.09;102045.47;5088895;28;20067;-80
2021/07/18 10:50:47;;;;;;;5.13;1.40;;;;;;;27.16;52.70;102034.72;5071151;28;20048;-80
2021/07/18 10:53:22;;;;;;;6.53;1.30;;;;;;;27.15;54.16;102043.00;5076138;28;20035;-84
2021/07/18 10:55:49;;;;;;;4.10;1.15;;;;;;;26.47;52.85;102046.63;5088167;28;20044;-81
2021/07/18 10:58:39;;;;;;;3.08;1.17;;;;;;;26.51;57.98;102048.63;5074481;28;20032;-81
2021/07/18 11:01:06;;;;;;;3.95;1.45;;;;;;;26.78;51.88;102043.81;5090855;28;20027;-81
2021/07/18 11:03:33;;;;;;;3.38;1.23;;;;;;;27.01;53.10;102042.31;5077542;28;20039;-84
2021/07/18 11:06:17;;;;;;;6.03;1.40;;;;;;;27.16;50.92;102047.34;5083279;28;20409;-83
2021/07/18 11:09:11;;;;;;;5.68;1.30;;;;;;;27.26;52.52;102044.97;5098434;28;20031;-82
2021/07/18 11:11:47;;;;;;;3.65;1.08;;;;;;;27.08;51.75;102042.25;5075660;28;20071;-78
2021/07/18 11:14:22;;;;;;;5.68;1.52;;;;;;;26.49;51.67;102044.53;5105169;28;20030;-81
2021/07/18 11:16:59;;;;;;;4.35;1.35;;;;;;;26.82;53.76;102032.63;5077628;28;20045;-81
2021/07/18 11:19:40;;;;;;;11.10;1.48;;;;;;;27.15;51.67;102032.25;5073904;28;20390;-82
2021/07/18 11:22:08;;;;;;;6.00;1.20;;;;;;;27.06;50.72;102036.28;5086382;28;20043;-80
2021/07/18 11:24:48;;;;;;;5.80;1.60;;;;;;;26.71;51.11;102020.72;5071198;28;20054;-80